Terminal Aerodrome Forecast
Issued by NWS

Home | Current Version | Previous Version | Text Only | Print | Product List | Glossary On
Versions: 1 2 3 4 5 6 7 8 9 10 11 12 13 14 15 16 17
000
FTUS46 KMFR 230509 AAA
TAFLMT
TAF AMD
KLMT 230509Z 2305/2324 00000KT 6SM BR BCFG SCT001 BKN020
      TEMPO 2305/2307 1/2SM FG VV001
     FM230700 00000KT 2SM BR BCFG BKN002 BKN015
     FM231000 VRB02KT 1/2SM FZFG VV002
     FM231600 VRB04KT P6SM SCT035=

USA.gov is the U.S. government's official web portal to all federal, state and local government web resources and services.